WetterOnline ( https://www.wetteronline.de )

Wetter aktuell Ulm

Aktuelles Wetter: Ulm-Mähringen (592m)

6-stündlich | Neueste Meldungen
Ortszeit Temperatur Wetter
Sa, 25.09. 14:00 20.7° C fast wolkenlos
Sa, 25.09. 8:00 5.9° C wolkenlos
Sa, 25.09. 2:00 7.2° C wolkenlos
Fr, 24.09. 20:00 13.4° C wolkenlos
Fr, 24.09. 14:00 19.0° C wolkenlos
Fr, 24.09. 8:00 9.1° C wolkenlos
Fr, 24.09. 2:00 9.2° C fast wolkenlos
Do, 23.09. 20:00 15.0° C wolkig
Ortszeit Temperatur Wetter
Sa, 25.09. 14:30 21.5° C fast wolkenlos
Sa, 25.09. 14:20 21.5° C fast wolkenlos
Sa, 25.09. 14:10 21.3° C fast wolkenlos
Sa, 25.09. 14:00 20.7° C fast wolkenlos
Sa, 25.09. 13:50 20.7° C fast wolkenlos
Sa, 25.09. 13:40 20.6° C wolkenlos
Sa, 25.09. 13:30 20.1° C fast wolkenlos
Sa, 25.09. 13:00 19.5° C fast wolkenlos
Sa, 25.09. 12:30 19.2° C leicht bewölkt
Sa, 25.09. 12:00 18.9° C leicht bewölkt
Sa, 25.09. 11:30 17.7° C wolkenlos
Ortszeit Relative Feuchte Sichtweite
Sa, 25.09. 14:00 60% 40 km
Sa, 25.09. 8:00 97% 19 km
Sa, 25.09. 2:00 95% 30 km
Fr, 24.09. 20:00 73% >70 km
Fr, 24.09. 14:00 58% 35 km
Fr, 24.09. 8:00 93% 35 km
Fr, 24.09. 2:00 87% 55 km
Do, 23.09. 20:00 73% 50 km
Ortszeit Relative Feuchte Sichtweite
Sa, 25.09. 14:30 59% 50 km
Sa, 25.09. 14:20 59% -
Sa, 25.09. 14:10 61% -
Sa, 25.09. 14:00 60% 40 km
Sa, 25.09. 13:50 60% -
Sa, 25.09. 13:40 62% -
Sa, 25.09. 13:30 62% 45 km
Sa, 25.09. 13:00 64% 40 km
Sa, 25.09. 12:30 65% 35 km
Sa, 25.09. 12:00 68% -
Sa, 25.09. 11:30 72% 60 km
Ortszeit Niederschlagsmenge Niederschlagsart
Sa, 25.09. 14:00 0.0 l/m2 in 6 Std. -
Sa, 25.09. 8:00 0.0 l/m2 in 12 Std. -
Sa, 25.09. 2:00 0.0 l/m2 in 6 Std. -
Fr, 24.09. 20:00 0.0 l/m2 in 12 Std. -
Fr, 24.09. 14:00 0.0 l/m2 in 6 Std. -
Fr, 24.09. 8:00 0.0 l/m2 in 12 Std. -
Fr, 24.09. 2:00 0.0 l/m2 in 6 Std. -
Do, 23.09. 20:00 0.0 l/m2 in 12 Std. -
Ortszeit Niederschlagsmenge Niederschlagsart
Sa, 25.09. 14:30 0.0 l/m2 in 1 Std. -
Sa, 25.09. 14:20 keine Meldung -
Sa, 25.09. 14:10 keine Meldung -
Sa, 25.09. 14:00 0.0 l/m2 in 1 Std. -
Sa, 25.09. 13:50 keine Meldung -
Sa, 25.09. 13:40 keine Meldung -
Sa, 25.09. 13:30 0.0 l/m2 in 1 Std. -
Sa, 25.09. 13:00 0.0 l/m2 in 1 Std. -
Sa, 25.09. 12:30 0.0 l/m2 in 1 Std. -
Sa, 25.09. 12:00 0.0 l/m2 in 1 Std. -
Sa, 25.09. 11:30 0.0 l/m2 in 1 Std. -
Ortszeit Stärke Spitze Richtung
km/h Bft. km/h Grad Sektor
Sa, 25.09. 14:00 13 3 20 160° S
Sa, 25.09. 8:00 4 1 7 360° N
Sa, 25.09. 2:00 4 1 11 260° W
Fr, 24.09. 20:00 4 1 25 290° W
Fr, 24.09. 14:00 13 3 24 200° S
Fr, 24.09. 8:00 6 1 20 260° W
Fr, 24.09. 2:00 4 1 18 210° SW
Do, 23.09. 20:00 7 2 25 230° SW
Ortszeit Stärke Spitze Richtung
km/h Bft. km/h Grad Sektor
Sa, 25.09. 14:30 9 2 17 170° S
Sa, 25.09. 14:20 9 2 - 170° S
Sa, 25.09. 14:10 7 2 - 170° S
Sa, 25.09. 14:00 13 3 19 160° S
Sa, 25.09. 13:50 13 3 - 160° S
Sa, 25.09. 13:40 11 2 - 170° S
Sa, 25.09. 13:30 13 3 19 160° S
Sa, 25.09. 13:00 9 2 20 150° SO
Sa, 25.09. 12:30 11 2 22 160° S
Sa, 25.09. 12:00 9 2 17 150° SO
Sa, 25.09. 11:30 7 2 15 170° S
Ortszeit Untergrenze Bedeckung Gattung
total tief tief mittel hoch
Sa, 25.09. 14:00 10500 m 1/8 0/8 - - -
Sa, 25.09. 8:00 - 0/8 0/8 - - -
Sa, 25.09. 2:00 - 0/8 0/8 - - -
Fr, 24.09. 20:00 - 0/8 0/8 - - -
Fr, 24.09. 14:00 - 0/8 0/8 - - -
Fr, 24.09. 8:00 - 0/8 0/8 - - -
Fr, 24.09. 2:00 10500 m 1/8 0/8 - - -
Do, 23.09. 20:00 10500 m 7/8 0/8 - - -
Ortszeit Bedeckungsgrad in Achtel und Wolkenuntergrenze
Sa, 25.09. 14:30 1(10500m)
Sa, 25.09. 14:20 1(10500m)
Sa, 25.09. 14:10 1(10500m)
Sa, 25.09. 14:00 1(10500m)
Sa, 25.09. 13:50 1(10500m)
Sa, 25.09. 13:40 keine Wolken
Sa, 25.09. 13:30 2(10500m)
Sa, 25.09. 13:00 1(10500m)
Sa, 25.09. 12:30 3(10500m)
Sa, 25.09. 12:00 4(10500m)
Sa, 25.09. 11:30 keine Wolken
Ortszeit Luftdruck NN (hPa) Tendenz (hPa in 3 Std.)
Sa, 25.09. 14:00 1017 - 0,7
Sa, 25.09. 8:00 1021 - 0,3
Sa, 25.09. 2:00 1021 0,0
Fr, 24.09. 20:00 1018 + 0,3
Fr, 24.09. 14:00 1018 - 1,0
Fr, 24.09. 8:00 1021 - 0,1
Fr, 24.09. 2:00 1021 + 0,1
Do, 23.09. 20:00 1018 - 0,1
Ortszeit Luftdruck NN (hPa) Tendenz (hPa in 3 Std.)
Sa, 25.09. 14:30 1016 - 1,0
Sa, 25.09. 14:20 1016 keine Meldung
Sa, 25.09. 14:10 1016 keine Meldung
Sa, 25.09. 14:00 1017 - 0,7
Sa, 25.09. 13:50 1017 keine Meldung
Sa, 25.09. 13:40 1017 keine Meldung
Sa, 25.09. 13:30 1017 - 0,6
Sa, 25.09. 13:00 1017 - 0,5
Sa, 25.09. 12:30 1017 + 0,1
Sa, 25.09. 12:00 1018 + 0,2
Sa, 25.09. 11:30 1018 + 0,3
Ortszeit Schneehöhe (cm)
Sa, 25.09. 14:00 -
Sa, 25.09. 8:00 -
Sa, 25.09. 2:00 -
Fr, 24.09. 20:00 -
Fr, 24.09. 14:00 -
Fr, 24.09. 8:00 -
Fr, 24.09. 2:00 -
Do, 23.09. 20:00 -
Ortszeit Schneehöhe (cm)
Sa, 25.09. 14:30 -
Sa, 25.09. 14:20 -
Sa, 25.09. 14:10 -
Sa, 25.09. 14:00 -
Sa, 25.09. 13:50 -
Sa, 25.09. 13:40 -
Sa, 25.09. 13:30 -
Sa, 25.09. 13:00 -
Sa, 25.09. 12:30 -
Sa, 25.09. 12:00 -
Sa, 25.09. 11:30 -
Link zu dieser Seite / Seite empfehlen

Das Wetter in ...